sensor_id;sensor_type;location;lat;lon;timestamp;pressure;altitude;pressure_sealevel;temperature;humidity
23677;BME280;31493;49.058;12.190;2022-07-29T00:00:29;95942.09;;;20.22;53.70
23677;BME280;31493;49.058;12.190;2022-07-29T00:02:56;95943.72;;;20.23;53.38
23677;BME280;31493;49.058;12.190;2022-07-29T00:05:23;95945.41;;;20.16;53.37
23677;BME280;31493;49.058;12.190;2022-07-29T00:07:50;95936.38;;;20.10;53.62
23677;BME280;31493;49.058;12.190;2022-07-29T00:10:19;95935.84;;;20.06;53.63
23677;BME280;31493;49.058;12.190;2022-07-29T00:12:46;95932.94;;;20.01;53.76
23677;BME280;31493;49.058;12.190;2022-07-29T00:15:13;95929.31;;;20.02;54.02
23677;BME280;31493;49.058;12.190;2022-07-29T00:17:40;95929.97;;;19.96;54.34
23677;BME280;31493;49.058;12.190;2022-07-29T00:20:08;95925.69;;;20.03;54.09
23677;BME280;31493;49.058;12.190;2022-07-29T00:22:37;95927.19;;;19.98;54.26
23677;BME280;31493;49.058;12.190;2022-07-29T00:25:05;95926.19;;;19.82;54.99
23677;BME280;31493;49.058;12.190;2022-07-29T00:27:34;95924.72;;;19.96;54.48
23677;BME280;31493;49.058;12.190;2022-07-29T00:30:02;95929.47;;;20.09;53.87
23677;BME280;31493;49.058;12.190;2022-07-29T00:32:29;95931.78;;;20.04;53.43
23677;BME280;31493;49.058;12.190;2022-07-29T00:34:56;95928.81;;;19.99;53.73
23677;BME280;31493;49.058;12.190;2022-07-29T00:37:41;95931.91;;;20.10;53.66
23677;BME280;31493;49.058;12.190;2022-07-29T00:40:08;95929.31;;;20.02;53.92
23677;BME280;31493;49.058;12.190;2022-07-29T00:42:43;95917.81;;;20.03;53.41
23677;BME280;31493;49.058;12.190;2022-07-29T00:45:10;95919.59;;;19.54;58.62
23677;BME280;31493;49.058;12.190;2022-07-29T00:47:38;95909.25;;;19.28;62.18
23677;BME280;31493;49.058;12.190;2022-07-29T00:50:07;95920.38;;;19.22;63.52
23677;BME280;31493;49.058;12.190;2022-07-29T00:52:36;95920.34;;;19.14;64.36
23677;BME280;31493;49.058;12.190;2022-07-29T00:55:04;95908.53;;;19.10;67.21
23677;BME280;31493;49.058;12.190;2022-07-29T00:57:32;95911.34;;;19.16;64.24
23677;BME280;31493;49.058;12.190;2022-07-29T01:00:00;95908.03;;;19.06;65.87
23677;BME280;31493;49.058;12.190;2022-07-29T01:02:28;95903.63;;;19.15;64.99
23677;BME280;31493;49.058;12.190;2022-07-29T01:04:55;95895.59;;;19.24;63.86
23677;BME280;31493;49.058;12.190;2022-07-29T01:07:24;95905.47;;;19.39;64.73
23677;BME280;31493;49.058;12.190;2022-07-29T01:09:53;95905.28;;;19.32;61.80
23677;BME280;31493;49.058;12.190;2022-07-29T01:12:21;95895.44;;;19.26;63.40
23677;BME280;31493;49.058;12.190;2022-07-29T01:14:50;95899.69;;;19.11;62.71
23677;BME280;31493;49.058;12.190;2022-07-29T01:17:22;95898.09;;;19.34;64.56
23677;BME280;31493;49.058;12.190;2022-07-29T01:19:58;95892.69;;;19.27;63.89
23677;BME280;31493;49.058;12.190;2022-07-29T01:25:48;95893.75;;;19.09;65.43
23677;BME280;31493;49.058;12.190;2022-07-29T01:28:41;95891.03;;;19.35;62.35
23677;BME280;31493;49.058;12.190;2022-07-29T01:31:15;95899.69;;;19.27;60.86
23677;BME280;31493;49.058;12.190;2022-07-29T01:33:48;95890.19;;;19.26;63.46
23677;BME280;31493;49.058;12.190;2022-07-29T01:36:27;95877.72;;;19.20;61.16
23677;BME280;31493;49.058;12.190;2022-07-29T01:39:02;95883.47;;;19.15;61.14
23677;BME280;31493;49.058;12.190;2022-07-29T01:41:31;95880.97;;;19.14;61.58
23677;BME280;31493;49.058;12.190;2022-07-29T01:44:02;95877.84;;;19.02;61.74
23677;BME280;31493;49.058;12.190;2022-07-29T01:46:38;95877.03;;;19.01;61.74
23677;BME280;31493;49.058;12.190;2022-07-29T01:49:10;95878.03;;;19.09;61.30
23677;BME280;31493;49.058;12.190;2022-07-29T01:51:41;95871.94;;;19.00;61.05
23677;BME280;31493;49.058;12.190;2022-07-29T01:54:13;95861.97;;;19.03;61.35
23677;BME280;31493;49.058;12.190;2022-07-29T01:56:42;95858.69;;;19.10;62.05
23677;BME280;31493;49.058;12.190;2022-07-29T01:59:11;95851.31;;;19.05;61.65
23677;BME280;31493;49.058;12.190;2022-07-29T02:01:39;95849.31;;;19.07;61.47
23677;BME280;31493;49.058;12.190;2022-07-29T02:04:10;95858.03;;;19.08;61.07
23677;BME280;31493;49.058;12.190;2022-07-29T02:06:38;95856.72;;;19.03;61.08
23677;BME280;31493;49.058;12.190;2022-07-29T02:09:09;95857.50;;;18.96;61.93
23677;BME280;31493;49.058;12.190;2022-07-29T02:11:37;95852.59;;;18.93;61.30
23677;BME280;31493;49.058;12.190;2022-07-29T02:14:05;95853.41;;;18.93;61.75
23677;BME280;31493;49.058;12.190;2022-07-29T02:16:35;95850.13;;;18.91;61.70
23677;BME280;31493;49.058;12.190;2022-07-29T02:19:04;95840.78;;;18.89;62.08
23677;BME280;31493;49.058;12.190;2022-07-29T02:21:33;95855.69;;;18.88;62.25
23677;BME280;31493;49.058;12.190;2022-07-29T02:24:01;95853.06;;;18.88;62.15
23677;BME280;31493;49.058;12.190;2022-07-29T02:26:30;95855.03;;;18.86;61.73
23677;BME280;31493;49.058;12.190;2022-07-29T02:28:59;95853.88;;;18.81;61.72
23677;BME280;31493;49.058;12.190;2022-07-29T02:31:30;95853.06;;;18.80;61.97
23677;BME280;31493;49.058;12.190;2022-07-29T02:34:01;95850.91;;;18.75;61.66
23677;BME280;31493;49.058;12.190;2022-07-29T02:36:29;95859.41;;;18.69;61.36
23677;BME280;31493;49.058;12.190;2022-07-29T02:38:58;95857.38;;;18.63;61.40
23677;BME280;31493;49.058;12.190;2022-07-29T02:41:28;95857.84;;;18.59;61.02
23677;BME280;31493;49.058;12.190;2022-07-29T02:43:58;95855.63;;;18.72;61.42
23677;BME280;31493;49.058;12.190;2022-07-29T02:46:31;95866.63;;;18.75;61.62
23677;BME280;31493;49.058;12.190;2022-07-29T02:49:05;95856.63;;;18.71;61.40
23677;BME280;31493;49.058;12.190;2022-07-29T02:51:40;95859.91;;;18.73;61.41
23677;BME280;31493;49.058;12.190;2022-07-29T02:54:10;95878.75;;;18.68;61.22
23677;BME280;31493;49.058;12.190;2022-07-29T02:56:39;95860.22;;;18.70;60.97
23677;BME280;31493;49.058;12.190;2022-07-29T02:59:10;95866.53;;;18.59;61.66
23677;BME280;31493;49.058;12.190;2022-07-29T03:01:40;95858.19;;;18.56;61.53
23677;BME280;31493;49.058;12.190;2022-07-29T03:04:11;95860.00;;;18.55;61.54
23677;BME280;31493;49.058;12.190;2022-07-29T03:06:40;95858.31;;;18.46;61.76
23677;BME280;31493;49.058;12.190;2022-07-29T03:09:08;95857.91;;;18.33;62.78
23677;BME280;31493;49.058;12.190;2022-07-29T03:11:37;95863.34;;;18.39;62.50
23677;BME280;31493;49.058;12.190;2022-07-29T03:14:05;95857.19;;;18.48;61.79
23677;BME280;31493;49.058;12.190;2022-07-29T03:16:33;95853.13;;;18.54;62.19
23677;BME280;31493;49.058;12.190;2022-07-29T03:19:02;95858.00;;;18.49;62.49
23677;BME280;31493;49.058;12.190;2022-07-29T03:21:31;95858.47;;;18.44;62.04
23677;BME280;31493;49.058;12.190;2022-07-29T03:23:58;95861.09;;;18.44;62.94
23677;BME280;31493;49.058;12.190;2022-07-29T03:26:25;95858.56;;;18.35;63.03
23677;BME280;31493;49.058;12.190;2022-07-29T03:28:52;95860.44;;;18.42;62.57
23677;BME280;31493;49.058;12.190;2022-07-29T03:31:19;95868.31;;;18.50;62.20
23677;BME280;31493;49.058;12.190;2022-07-29T03:33:46;95865.69;;;18.42;62.64
23677;BME280;31493;49.058;12.190;2022-07-29T03:36:13;95860.44;;;18.42;62.99
23677;BME280;31493;49.058;12.190;2022-07-29T03:38:43;95851.53;;;18.35;63.23
23677;BME280;31493;49.058;12.190;2022-07-29T03:41:12;95866.44;;;18.35;62.80
23677;BME280;31493;49.058;12.190;2022-07-29T03:43:42;95860.91;;;18.46;62.97
23677;BME280;31493;49.058;12.190;2022-07-29T03:46:11;95858.28;;;18.38;62.71
23677;BME280;31493;49.058;12.190;2022-07-29T03:48:42;95860.44;;;18.42;62.69
23677;BME280;31493;49.058;12.190;2022-07-29T03:51:13;95853.50;;;18.33;63.06
23677;BME280;31493;49.058;12.190;2022-07-29T03:53:41;95851.53;;;18.35;63.27
23677;BME280;31493;49.058;12.190;2022-07-29T03:56:08;95855.31;;;18.41;62.50
23677;BME280;31493;49.058;12.190;2022-07-29T03:58:37;95860.56;;;18.41;62.87
23677;BME280;31493;49.058;12.190;2022-07-29T04:01:05;95862.00;;;18.35;63.10
23677;BME280;31493;49.058;12.190;2022-07-29T04:03:32;95866.75;;;18.32;63.35
23677;BME280;31493;49.058;12.190;2022-07-29T04:06:01;95855.66;;;18.38;63.17
23677;BME280;31493;49.058;12.190;2022-07-29T04:08:28;95865.19;;;18.47;62.49
23677;BME280;31493;49.058;12.190;2022-07-29T04:10:57;95868.16;;;18.52;62.15
23677;BME280;31493;49.058;12.190;2022-07-29T04:13:24;95875.72;;;18.55;62.36
23677;BME280;31493;49.058;12.190;2022-07-29T04:15:51;95874.75;;;18.64;62.11
23677;BME280;31493;49.058;12.190;2022-07-29T04:18:18;95869.16;;;18.59;63.11
23677;BME280;31493;49.058;12.190;2022-07-29T04:20:45;95871.59;;;18.52;63.41
23677;BME280;31493;49.058;12.190;2022-07-29T04:23:12;95889.31;;;18.59;63.73
23677;BME280;31493;49.058;12.190;2022-07-29T04:25:40;95896.97;;;18.44;62.16
23677;BME280;31493;49.058;12.190;2022-07-29T04:28:09;95889.94;;;18.52;61.72
23677;BME280;31493;49.058;12.190;2022-07-29T04:30:37;95897.47;;;18.82;63.81
23677;BME280;31493;49.058;12.190;2022-07-29T04:33:06;95905.69;;;18.87;63.21
23677;BME280;31493;49.058;12.190;2022-07-29T04:35:35;95900.75;;;18.84;63.41
23677;BME280;31493;49.058;12.190;2022-07-29T04:38:04;95901.41;;;18.51;62.46
23677;BME280;31493;49.058;12.190;2022-07-29T04:40:31;95899.31;;;18.55;61.88
23677;BME280;31493;49.058;12.190;2022-07-29T04:42:59;95899.59;;;18.52;62.91
23677;BME280;31493;49.058;12.190;2022-07-29T04:45:28;95896.19;;;18.60;62.17
23677;BME280;31493;49.058;12.190;2022-07-29T04:47:56;95896.31;;;18.84;60.87
23677;BME280;31493;49.058;12.190;2022-07-29T04:50:23;95900.09;;;18.90;60.58
23677;BME280;31493;49.058;12.190;2022-07-29T04:52:50;95890.41;;;18.82;60.70
23677;BME280;31493;49.058;12.190;2022-07-29T04:55:18;95897.00;;;18.86;60.54
23677;BME280;31493;49.058;12.190;2022-07-29T04:57:45;95907.66;;;18.93;60.50
23677;BME280;31493;49.058;12.190;2022-07-29T05:00:12;95910.81;;;19.04;63.64
23677;BME280;31493;49.058;12.190;2022-07-29T05:02:41;95903.94;;;19.03;62.40
23677;BME280;31493;49.058;12.190;2022-07-29T05:05:08;95906.00;;;18.84;61.94
23677;BME280;31493;49.058;12.190;2022-07-29T05:07:35;95903.69;;;18.72;61.46
23677;BME280;31493;49.058;12.190;2022-07-29T05:10:03;95912.84;;;18.76;61.69
23677;BME280;31493;49.058;12.190;2022-07-29T05:12:30;95910.13;;;18.86;61.48
23677;BME280;31493;49.058;12.190;2022-07-29T05:14:57;95904.34;;;18.74;61.76
23677;BME280;31493;49.058;12.190;2022-07-29T05:17:24;95907.59;;;18.76;61.58
23677;BME280;31493;49.058;12.190;2022-07-29T05:19:52;95915.31;;;18.78;61.44
23677;BME280;31493;49.058;12.190;2022-07-29T05:22:20;95913.63;;;19.03;63.67
23677;BME280;31493;49.058;12.190;2022-07-29T05:24:47;95923.13;;;19.04;64.30
23677;BME280;31493;49.058;12.190;2022-07-29T05:27:14;95925.56;;;19.05;64.27
23677;BME280;31493;49.058;12.190;2022-07-29T05:29:41;95916.72;;;19.15;63.36
23677;BME280;31493;49.058;12.190;2022-07-29T05:32:08;95922.84;;;19.31;62.67
23677;BME280;31493;49.058;12.190;2022-07-29T05:34:35;95907.91;;;19.24;61.42
23677;BME280;31493;49.058;12.190;2022-07-29T05:37:04;95911.59;;;18.89;62.98
23677;BME280;31493;49.058;12.190;2022-07-29T05:39:31;95903.78;;;19.05;62.65
23677;BME280;31493;49.058;12.190;2022-07-29T05:41:58;95911.09;;;18.85;62.32
23677;BME280;31493;49.058;12.190;2022-07-29T05:44:25;95909.13;;;18.95;62.91
23677;BME280;31493;49.058;12.190;2022-07-29T05:46:52;95926.91;;;19.18;63.47
23677;BME280;31493;49.058;12.190;2022-07-29T05:49:19;95922.97;;;19.14;64.28
23677;BME280;31493;49.058;12.190;2022-07-29T05:51:46;95928.31;;;18.96;63.34
23677;BME280;31493;49.058;12.190;2022-07-29T05:54:15;95917.09;;;18.77;64.60
23677;BME280;31493;49.058;12.190;2022-07-29T05:56:42;95917.38;;;18.66;64.45
23677;BME280;31493;49.058;12.190;2022-07-29T05:59:10;95924.84;;;18.79;63.79
23677;BME280;31493;49.058;12.190;2022-07-29T06:01:37;95923.84;;;18.80;62.91
23677;BME280;31493;49.058;12.190;2022-07-29T06:04:05;95920.78;;;18.93;62.92
23677;BME280;31493;49.058;12.190;2022-07-29T06:06:33;95912.47;;;19.05;62.19
23677;BME280;31493;49.058;12.190;2022-07-29T06:09:01;95929.22;;;19.21;62.56
23677;BME280;31493;49.058;12.190;2022-07-29T06:11:29;95927.09;;;19.24;62.35
23677;BME280;31493;49.058;12.190;2022-07-29T06:13:56;95924.63;;;19.23;60.33
23677;BME280;31493;49.058;12.190;2022-07-29T06:16:23;95925.59;;;19.14;61.91
23677;BME280;31493;49.058;12.190;2022-07-29T06:18:50;95916.25;;;19.19;61.21
23677;BME280;31493;49.058;12.190;2022-07-29T06:21:17;95922.63;;;19.09;61.49
23677;BME280;31493;49.058;12.190;2022-07-29T06:23:45;95931.81;;;19.13;61.20
23677;BME280;31493;49.058;12.190;2022-07-29T06:26:12;95931.16;;;19.11;61.18
23677;BME280;31493;49.058;12.190;2022-07-29T06:28:40;95929.25;;;19.29;60.41
23677;BME280;31493;49.058;12.190;2022-07-29T06:31:07;95930.53;;;19.17;61.19
23677;BME280;31493;49.058;12.190;2022-07-29T06:33:34;95921.84;;;19.32;61.15
23677;BME280;31493;49.058;12.190;2022-07-29T06:36:03;95933.16;;;19.25;60.50
23677;BME280;31493;49.058;12.190;2022-07-29T06:38:30;95919.25;;;19.49;60.05
23677;BME280;31493;49.058;12.190;2022-07-29T06:40:58;95925.16;;;19.51;60.21
23677;BME280;31493;49.058;12.190;2022-07-29T06:43:31;95938.19;;;19.61;60.40
23677;BME280;31493;49.058;12.190;2022-07-29T06:46:02;95928.47;;;19.69;60.25
23677;BME280;31493;49.058;12.190;2022-07-29T06:48:30;95928.66;;;19.76;60.43
23677;BME280;31493;49.058;12.190;2022-07-29T06:50:57;95924.53;;;19.81;60.56
23677;BME280;31493;49.058;12.190;2022-07-29T06:53:24;95941.28;;;19.89;60.99
23677;BME280;31493;49.058;12.190;2022-07-29T06:55:51;95937.00;;;20.12;59.71
23677;BME280;31493;49.058;12.190;2022-07-29T06:58:19;95935.00;;;20.30;59.58
23677;BME280;31493;49.058;12.190;2022-07-29T07:00:47;95947.69;;;20.27;59.32
23677;BME280;31493;49.058;12.190;2022-07-29T07:03:16;95948.19;;;20.14;61.30
23677;BME280;31493;49.058;12.190;2022-07-29T07:05:44;95954.56;;;20.28;60.21
23677;BME280;31493;49.058;12.190;2022-07-29T07:08:12;95958.16;;;20.35;59.99
23677;BME280;31493;49.058;12.190;2022-07-29T07:10:39;95957.50;;;20.41;60.98
23677;BME280;31493;49.058;12.190;2022-07-29T07:13:07;95955.69;;;20.50;59.32
23677;BME280;31493;49.058;12.190;2022-07-29T07:15:35;95961.25;;;20.71;60.11
23677;BME280;31493;49.058;12.190;2022-07-29T07:18:02;95959.09;;;20.75;59.04
23677;BME280;31493;49.058;12.190;2022-07-29T07:20:31;95959.16;;;21.06;60.20
23677;BME280;31493;49.058;12.190;2022-07-29T07:22:58;95961.78;;;20.98;58.11
23677;BME280;31493;49.058;12.190;2022-07-29T07:25:25;95964.31;;;21.30;57.87
23677;BME280;31493;49.058;12.190;2022-07-29T07:27:53;95969.94;;;21.19;58.16
23677;BME280;31493;49.058;12.190;2022-07-29T07:30:20;95960.84;;;21.30;59.14
23677;BME280;31493;49.058;12.190;2022-07-29T07:32:48;95968.75;;;21.30;60.78
23677;BME280;31493;49.058;12.190;2022-07-29T07:35:15;95962.25;;;21.40;60.91
23677;BME280;31493;49.058;12.190;2022-07-29T07:37:43;95951.81;;;21.55;61.92
23677;BME280;31493;49.058;12.190;2022-07-29T07:40:11;95963.03;;;21.72;61.31
23677;BME280;31493;49.058;12.190;2022-07-29T07:42:40;95963.88;;;21.72;60.63
23677;BME280;31493;49.058;12.190;2022-07-29T07:45:08;95964.53;;;21.75;61.48
23677;BME280;31493;49.058;12.190;2022-07-29T07:47:36;95964.97;;;22.24;60.47
23677;BME280;31493;49.058;12.190;2022-07-29T07:50:04;95957.00;;;22.09;60.01
23677;BME280;31493;49.058;12.190;2022-07-29T07:52:32;95957.91;;;22.39;59.10
23677;BME280;31493;49.058;12.190;2022-07-29T07:55:00;95957.56;;;22.42;59.22
23677;BME280;31493;49.058;12.190;2022-07-29T07:57:27;95955.47;;;22.67;59.78
23677;BME280;31493;49.058;12.190;2022-07-29T07:59:54;95958.09;;;22.82;58.86
23677;BME280;31493;49.058;12.190;2022-07-29T08:02:21;95960.03;;;22.88;58.60
23677;BME280;31493;49.058;12.190;2022-07-29T08:04:48;95959.53;;;23.29;57.71
23677;BME280;31493;49.058;12.190;2022-07-29T08:07:16;95955.75;;;22.87;58.19
23677;BME280;31493;49.058;12.190;2022-07-29T08:09:43;95951.13;;;22.89;58.88
23677;BME280;31493;49.058;12.190;2022-07-29T08:12:11;95950.94;;;22.91;58.23
23677;BME280;31493;49.058;12.190;2022-07-29T08:14:38;95960.91;;;23.25;57.72
23677;BME280;31493;49.058;12.190;2022-07-29T08:17:05;95960.63;;;23.35;56.84
23677;BME280;31493;49.058;12.190;2022-07-29T08:19:32;95963.06;;;23.36;56.62
23677;BME280;31493;49.058;12.190;2022-07-29T08:21:59;95964.53;;;23.39;56.47
23677;BME280;31493;49.058;12.190;2022-07-29T08:24:26;95964.69;;;23.52;56.05
23677;BME280;31493;49.058;12.190;2022-07-29T08:27:19;95967.47;;;23.65;55.68
23677;BME280;31493;49.058;12.190;2022-07-29T08:29:47;95961.22;;;23.51;54.81
23677;BME280;31493;49.058;12.190;2022-07-29T08:32:14;95964.66;;;23.01;54.70
23677;BME280;31493;49.058;12.190;2022-07-29T08:34:41;95961.41;;;22.99;55.85
23677;BME280;31493;49.058;12.190;2022-07-29T08:37:12;95960.34;;;23.29;55.60
23677;BME280;31493;49.058;12.190;2022-07-29T08:39:39;95965.16;;;23.41;56.16
23677;BME280;31493;49.058;12.190;2022-07-29T08:42:06;95958.41;;;23.74;55.47
23677;BME280;31493;49.058;12.190;2022-07-29T08:44:37;95959.81;;;24.41;54.12
23677;BME280;31493;49.058;12.190;2022-07-29T08:47:04;95962.13;;;24.01;53.01
23677;BME280;31493;49.058;12.190;2022-07-29T08:49:33;95963.16;;;24.28;53.17
23677;BME280;31493;49.058;12.190;2022-07-29T08:52:00;95960.78;;;24.61;54.22
23677;BME280;31493;49.058;12.190;2022-07-29T08:54:28;95963.72;;;24.24;51.27
23677;BME280;31493;49.058;12.190;2022-07-29T08:56:55;95963.63;;;24.60;51.10
23677;BME280;31493;49.058;12.190;2022-07-29T08:59:24;95947.19;;;24.15;51.88
23677;BME280;31493;49.058;12.190;2022-07-29T09:01:54;95951.03;;;24.34;49.68
23677;BME280;31493;49.058;12.190;2022-07-29T09:04:27;95960.59;;;24.35;50.06
23677;BME280;31493;49.058;12.190;2022-07-29T09:06:57;95953.91;;;24.39;50.82
23677;BME280;31493;49.058;12.190;2022-07-29T09:09:26;95953.69;;;24.12;50.13
23677;BME280;31493;49.058;12.190;2022-07-29T09:11:53;95956.94;;;24.36;49.96
23677;BME280;31493;49.058;12.190;2022-07-29T09:14:21;95954.44;;;24.90;49.62
23677;BME280;31493;49.058;12.190;2022-07-29T09:16:50;95950.25;;;25.09;50.22
23677;BME280;31493;49.058;12.190;2022-07-29T09:19:24;95947.78;;;25.49;50.16
23677;BME280;31493;49.058;12.190;2022-07-29T09:21:52;95959.75;;;25.38;48.07
23677;BME280;31493;49.058;12.190;2022-07-29T09:24:35;95953.06;;;25.49;48.92
23677;BME280;31493;49.058;12.190;2022-07-29T09:27:08;95949.22;;;25.65;47.37
23677;BME280;31493;49.058;12.190;2022-07-29T09:29:36;95953.19;;;26.09;48.23
23677;BME280;31493;49.058;12.190;2022-07-29T09:32:06;95947.06;;;26.35;47.55
23677;BME280;31493;49.058;12.190;2022-07-29T09:34:36;95948.91;;;26.14;45.61
23677;BME280;31493;49.058;12.190;2022-07-29T09:37:04;95936.44;;;25.88;46.92
23677;BME280;31493;49.058;12.190;2022-07-29T09:39:33;95937.25;;;25.82;46.13
23677;BME280;31493;49.058;12.190;2022-07-29T09:42:02;95941.34;;;26.18;46.42
23677;BME280;31493;49.058;12.190;2022-07-29T09:44:41;95939.50;;;26.51;45.22
23677;BME280;31493;49.058;12.190;2022-07-29T09:47:09;95940.75;;;26.36;45.62
23677;BME280;31493;49.058;12.190;2022-07-29T09:49:50;95939.94;;;26.48;45.24
23677;BME280;31493;49.058;12.190;2022-07-29T09:52:18;95928.69;;;25.93;45.58
23677;BME280;31493;49.058;12.190;2022-07-29T09:54:46;95936.84;;;26.32;44.55
23677;BME280;31493;49.058;12.190;2022-07-29T09:57:24;95939.31;;;26.20;43.94
23677;BME280;31493;49.058;12.190;2022-07-29T09:59:59;95936.84;;;26.25;43.49
23677;BME280;31493;49.058;12.190;2022-07-29T10:02:31;95943.78;;;26.66;43.16
23677;BME280;31493;49.058;12.190;2022-07-29T10:05:01;95947.06;;;26.61;41.64
23677;BME280;31493;49.058;12.190;2022-07-29T10:07:43;95942.53;;;26.75;42.61
23677;BME280;31493;49.058;12.190;2022-07-29T10:10:17;95938.06;;;26.62;43.00
23677;BME280;31493;49.058;12.190;2022-07-29T10:12:55;95927.41;;;26.75;42.84
23677;BME280;31493;49.058;12.190;2022-07-29T10:15:23;95940.31;;;26.65;42.60
23677;BME280;31493;49.058;12.190;2022-07-29T10:17:52;95932.94;;;26.74;41.96
23677;BME280;31493;49.058;12.190;2022-07-29T10:20:21;95943.28;;;27.02;40.90
23677;BME280;31493;49.058;12.190;2022-07-29T10:22:49;95938.00;;;26.82;41.04
23677;BME280;31493;49.058;12.190;2022-07-29T10:25:17;95929.50;;;27.31;41.22
23677;BME280;31493;49.058;12.190;2022-07-29T10:27:45;95930.56;;;27.17;41.34
23677;BME280;31493;49.058;12.190;2022-07-29T10:30:14;95927.88;;;27.24;41.19
23677;BME280;31493;49.058;12.190;2022-07-29T10:32:54;95933.00;;;27.19;41.30
23677;BME280;31493;49.058;12.190;2022-07-29T10:35:33;95923.00;;;27.59;40.28
23677;BME280;31493;49.058;12.190;2022-07-29T10:38:42;95917.25;;;27.62;39.03
23677;BME280;31493;49.058;12.190;2022-07-29T10:44:15;95924.69;;;27.85;39.33
23677;BME280;31493;49.058;12.190;2022-07-29T10:46:43;95926.53;;;27.84;38.81
23677;BME280;31493;49.058;12.190;2022-07-29T10:49:12;95921.75;;;27.62;39.61
23677;BME280;31493;49.058;12.190;2022-07-29T10:51:56;95921.06;;;28.29;37.34
23677;BME280;31493;49.058;12.190;2022-07-29T10:54:42;95927.44;;;28.03;37.58
23677;BME280;31493;49.058;12.190;2022-07-29T10:57:15;95921.81;;;27.87;37.60
23677;BME280;31493;49.058;12.190;2022-07-29T10:59:44;95919.56;;;28.15;36.68
23677;BME280;31493;49.058;12.190;2022-07-29T11:02:45;95924.75;;;28.28;36.29
23677;BME280;31493;49.058;12.190;2022-07-29T11:05:18;95920.88;;;28.31;36.67
23677;BME280;31493;49.058;12.190;2022-07-29T11:08:18;95918.34;;;27.86;35.52
23677;BME280;31493;49.058;12.190;2022-07-29T11:10:47;95924.53;;;28.36;36.50
23677;BME280;31493;49.058;12.190;2022-07-29T11:16:21;95920.84;;;28.37;36.85
23677;BME280;31493;49.058;12.190;2022-07-29T11:19:19;95921.53;;;28.88;37.08
23677;BME280;31493;49.058;12.190;2022-07-29T11:21:46;95910.06;;;28.87;36.63
23677;BME280;31493;49.058;12.190;2022-07-29T11:24:18;95910.59;;;28.34;36.87
23677;BME280;31493;49.058;12.190;2022-07-29T11:27:08;95910.41;;;28.29;37.92
23677;BME280;31493;49.058;12.190;2022-07-29T11:29:38;95910.94;;;28.20;37.86
23677;BME280;31493;49.058;12.190;2022-07-29T11:32:11;95905.84;;;27.87;38.96
23677;BME280;31493;49.058;12.190;2022-07-29T11:34:38;95911.66;;;27.77;39.04
23677;BME280;31493;49.058;12.190;2022-07-29T11:37:30;95900.56;;;28.11;38.54
23677;BME280;31493;49.058;12.190;2022-07-29T11:40:13;95906.69;;;28.12;38.46
23677;BME280;31493;49.058;12.190;2022-07-29T11:42:43;95905.09;;;27.79;39.03
23677;BME280;31493;49.058;12.190;2022-07-29T11:45:16;95895.97;;;27.62;39.63
23677;BME280;31493;49.058;12.190;2022-07-29T11:47:49;95903.94;;;27.62;39.58
23677;BME280;31493;49.058;12.190;2022-07-29T11:50:28;95908.16;;;27.45;39.46
23677;BME280;31493;49.058;12.190;2022-07-29T11:52:56;95902.84;;;27.45;39.91
23677;BME280;31493;49.058;12.190;2022-07-29T11:55:25;95905.91;;;27.42;40.50
23677;BME280;31493;49.058;12.190;2022-07-29T11:57:53;95909.53;;;27.16;40.77
23677;BME280;31493;49.058;12.190;2022-07-29T12:00:23;95905.59;;;27.25;40.71
23677;BME280;31493;49.058;12.190;2022-07-29T12:02:51;95905.47;;;27.00;40.90
23677;BME280;31493;49.058;12.190;2022-07-29T12:05:18;95904.38;;;27.27;41.01
23677;BME280;31493;49.058;12.190;2022-07-29T12:07:47;95904.47;;;26.94;41.01
23677;BME280;31493;49.058;12.190;2022-07-29T12:10:15;95904.81;;;27.18;41.50
23677;BME280;31493;49.058;12.190;2022-07-29T12:12:51;95893.63;;;27.47;40.96
23677;BME280;31493;49.058;12.190;2022-07-29T12:15:19;95901.59;;;27.47;41.19
23677;BME280;31493;49.058;12.190;2022-07-29T12:17:47;95903.75;;;27.32;41.25
23677;BME280;31493;49.058;12.190;2022-07-29T12:20:22;95906.47;;;27.57;41.27
23677;BME280;31493;49.058;12.190;2022-07-29T12:22:50;95886.19;;;27.63;40.71
23677;BME280;31493;49.058;12.190;2022-07-29T12:25:19;95892.38;;;27.50;41.08
23677;BME280;31493;49.058;12.190;2022-07-29T12:27:49;95888.31;;;28.04;40.58
23677;BME280;31493;49.058;12.190;2022-07-29T12:30:34;95885.28;;;27.37;41.16
23677;BME280;31493;49.058;12.190;2022-07-29T12:33:01;95882.00;;;27.42;41.14
23677;BME280;31493;49.058;12.190;2022-07-29T12:35:28;95899.88;;;27.28;41.62
23677;BME280;31493;49.058;12.190;2022-07-29T12:37:55;95894.81;;;27.20;41.48
23677;BME280;31493;49.058;12.190;2022-07-29T12:40:23;95902.94;;;27.25;41.64
23677;BME280;31493;49.058;12.190;2022-07-29T12:43:09;95891.81;;;27.41;41.31
23677;BME280;31493;49.058;12.190;2022-07-29T12:45:37;95896.06;;;27.49;41.19
23677;BME280;31493;49.058;12.190;2022-07-29T12:48:05;95874.50;;;27.32;41.13
23677;BME280;31493;49.058;12.190;2022-07-29T12:50:35;95867.16;;;27.27;41.17
23677;BME280;31493;49.058;12.190;2022-07-29T12:53:10;95876.94;;;27.65;41.12
23677;BME280;31493;49.058;12.190;2022-07-29T12:55:39;95873.28;;;27.28;41.22
23677;BME280;31493;49.058;12.190;2022-07-29T12:58:06;95873.13;;;27.23;41.14
23677;BME280;31493;49.058;12.190;2022-07-29T13:00:35;95867.81;;;27.23;41.05
23677;BME280;31493;49.058;12.190;2022-07-29T13:03:02;95867.38;;;27.26;40.93
23677;BME280;31493;49.058;12.190;2022-07-29T13:05:43;95871.78;;;27.07;40.93
23677;BME280;31493;49.058;12.190;2022-07-29T13:08:12;95869.56;;;26.91;41.27
23677;BME280;31493;49.058;12.190;2022-07-29T13:10:39;95869.19;;;26.81;41.33
23677;BME280;31493;49.058;12.190;2022-07-29T13:13:08;95872.97;;;27.04;40.60